createdAt,value
2023-03-11T00:00:50.539Z,978.65
2023-03-11T00:01:50.545Z,978.69
2023-03-11T00:02:50.500Z,978.75
2023-03-11T00:03:50.519Z,978.74
2023-03-11T00:04:50.492Z,978.78
2023-03-11T00:05:50.527Z,978.81
2023-03-11T00:06:50.472Z,978.81
2023-03-11T00:07:50.483Z,978.85
2023-03-11T00:08:50.477Z,978.88
2023-03-11T00:09:50.476Z,978.80
2023-03-11T00:10:50.461Z,978.88
2023-03-11T00:11:50.455Z,978.88
2023-03-11T00:12:50.451Z,978.99
2023-03-11T00:13:50.458Z,978.98
2023-03-11T00:14:50.430Z,978.95
2023-03-11T00:15:50.429Z,979.02
2023-03-11T00:16:50.492Z,979.10
2023-03-11T00:17:50.432Z,979.01
2023-03-11T00:18:50.413Z,979.10
2023-03-11T00:19:50.414Z,979.06
2023-03-11T00:20:50.408Z,979.18
2023-03-11T00:21:50.381Z,979.18
2023-03-11T00:22:50.374Z,979.23
2023-03-11T00:23:50.366Z,979.24
2023-03-11T00:24:50.385Z,979.24
2023-03-11T00:25:50.400Z,979.29
2023-03-11T00:26:50.350Z,979.35
2023-03-11T00:27:50.363Z,979.28
2023-03-11T00:28:50.343Z,979.30
2023-03-11T00:29:50.337Z,979.44
2023-03-11T00:30:50.325Z,979.39
2023-03-11T00:31:50.333Z,979.45
2023-03-11T00:32:50.494Z,979.39
2023-03-11T00:33:50.299Z,979.46
2023-03-11T00:34:50.299Z,979.51
2023-03-11T00:35:50.382Z,979.45
2023-03-11T00:36:50.318Z,979.42
2023-03-11T00:37:50.282Z,979.53
2023-03-11T00:38:50.308Z,979.38
2023-03-11T00:39:50.265Z,979.56
2023-03-11T00:40:50.294Z,979.65
2023-03-11T00:41:50.245Z,979.55
2023-03-11T00:42:50.244Z,979.59
2023-03-11T00:43:50.238Z,979.60
2023-03-11T00:44:50.223Z,979.52
2023-03-11T00:45:50.257Z,979.61
2023-03-11T00:46:50.215Z,979.67
2023-03-11T00:47:50.222Z,979.72
2023-03-11T00:48:50.197Z,979.76
2023-03-11T00:49:50.205Z,979.74
2023-03-11T00:50:50.175Z,979.75
2023-03-11T00:51:50.199Z,979.62
2023-03-11T00:52:50.176Z,979.64
2023-03-11T00:53:50.163Z,979.67
2023-03-11T00:54:50.161Z,979.63
2023-03-11T00:55:50.161Z,979.70
2023-03-11T00:56:50.139Z,979.74
2023-03-11T00:57:50.149Z,979.77
2023-03-11T00:58:50.130Z,979.79
2023-03-11T00:59:50.126Z,979.80
2023-03-11T01:00:50.119Z,979.92
2023-03-11T01:01:50.101Z,979.96
2023-03-11T01:02:50.106Z,980.01
2023-03-11T01:03:50.112Z,980.06
2023-03-11T01:04:50.241Z,980.03
2023-03-11T01:05:50.142Z,980.05
2023-03-11T01:06:50.066Z,980.07
2023-03-11T01:07:50.083Z,980.09
2023-03-11T01:08:50.064Z,980.09
2023-03-11T01:09:50.085Z,980.07
2023-03-11T01:10:50.046Z,980.06
2023-03-11T01:11:50.030Z,980.19
2023-03-11T01:12:50.050Z,980.11
2023-03-11T01:13:50.031Z,980.22
2023-03-11T01:14:50.022Z,980.16
2023-03-11T01:15:50.050Z,980.01
2023-03-11T01:16:50.016Z,980.15
2023-03-11T01:17:50.012Z,980.12
2023-03-11T01:18:50.005Z,980.16
2023-03-11T01:19:50.006Z,980.12
2023-03-11T01:20:50.027Z,980.13
2023-03-11T01:21:49.971Z,980.12
2023-03-11T01:22:49.968Z,980.24
2023-03-11T01:23:49.968Z,980.23
2023-03-11T01:24:49.962Z,980.28
2023-03-11T01:25:49.961Z,980.29
2023-03-11T01:26:49.948Z,980.19
2023-03-11T01:27:49.928Z,980.24
2023-03-11T01:28:49.930Z,980.33
2023-03-11T01:29:49.918Z,980.29
2023-03-11T01:30:49.980Z,980.34
2023-03-11T01:31:49.903Z,980.41
2023-03-11T01:32:50.004Z,980.40
2023-03-11T01:33:49.893Z,980.38
2023-03-11T01:34:49.889Z,980.44
2023-03-11T01:35:49.934Z,980.42
2023-03-11T01:36:49.868Z,980.46
2023-03-11T01:37:49.885Z,980.48
2023-03-11T01:38:49.868Z,980.58
2023-03-11T01:39:49.846Z,980.53
2023-03-11T01:40:49.855Z,980.62
2023-03-11T01:41:49.841Z,980.61
2023-03-11T01:42:49.838Z,980.63
2023-03-11T01:43:49.845Z,980.70
2023-03-11T01:44:49.827Z,980.53
2023-03-11T01:45:49.834Z,980.66
2023-03-11T01:46:49.891Z,980.63
2023-03-11T01:47:49.798Z,980.65
2023-03-11T01:48:49.792Z,980.63
2023-03-11T01:49:50.027Z,980.60
2023-03-11T01:50:49.789Z,980.57
2023-03-11T01:51:49.772Z,980.62
2023-03-11T01:52:49.775Z,980.62
2023-03-11T01:53:49.753Z,980.60
2023-03-11T01:54:51.848Z,980.74
2023-03-11T01:55:50.749Z,980.65
2023-03-11T01:56:49.745Z,980.61
2023-03-11T01:57:49.725Z,980.59
2023-03-11T01:58:49.730Z,980.61
2023-03-11T01:59:49.735Z,980.64
2023-03-11T02:00:49.736Z,980.65
2023-03-11T02:01:49.726Z,980.71
2023-03-11T02:02:49.748Z,980.71
2023-03-11T02:03:49.697Z,980.73
2023-03-11T02:04:49.684Z,980.80
2023-03-11T02:05:49.695Z,980.83
2023-03-11T02:06:50.668Z,980.79
2023-03-11T02:07:49.664Z,980.72
2023-03-11T02:08:49.683Z,980.75
2023-03-11T02:09:49.663Z,980.76
2023-03-11T02:10:49.645Z,980.67
2023-03-11T02:11:49.670Z,980.72
2023-03-11T02:12:49.636Z,980.73
2023-03-11T02:13:49.634Z,980.72
2023-03-11T02:14:49.625Z,980.80
2023-03-11T02:15:49.663Z,980.84
2023-03-11T02:16:49.644Z,980.78
2023-03-11T02:17:49.602Z,980.73
2023-03-11T02:18:49.615Z,980.85
2023-03-11T02:19:49.603Z,980.82
2023-03-11T02:20:49.597Z,980.90
2023-03-11T02:21:49.570Z,980.87
2023-03-11T02:22:49.594Z,980.84
2023-03-11T02:23:49.567Z,980.90
2023-03-11T02:24:49.577Z,980.90
2023-03-11T02:25:49.560Z,980.87
2023-03-11T02:26:49.555Z,980.88
2023-03-11T02:27:49.552Z,980.96
2023-03-11T02:28:49.541Z,980.99
2023-03-11T02:29:49.536Z,981.06
2023-03-11T02:30:49.521Z,981.11
2023-03-11T02:31:49.557Z,981.13
2023-03-11T02:32:49.594Z,981.15
2023-03-11T02:33:49.507Z,981.20
2023-03-11T02:34:49.520Z,981.19
2023-03-11T02:35:49.542Z,981.20
2023-03-11T02:36:49.493Z,981.20
2023-03-11T02:37:49.484Z,981.25
2023-03-11T02:38:49.540Z,981.26
2023-03-11T02:39:49.475Z,981.25
2023-03-11T02:40:49.474Z,981.27
2023-03-11T02:41:49.460Z,981.38
2023-03-11T02:42:49.459Z,981.35
2023-03-11T02:43:49.461Z,981.30
2023-03-11T02:44:49.468Z,981.40
2023-03-11T02:45:49.443Z,981.34
2023-03-11T02:46:49.535Z,981.38
2023-03-11T02:47:49.422Z,981.40
2023-03-11T02:48:49.405Z,981.37
2023-03-11T02:49:49.418Z,981.35
2023-03-11T02:50:49.403Z,981.41
2023-03-11T02:51:49.407Z,981.36
2023-03-11T02:52:49.437Z,981.48
2023-03-11T02:53:49.387Z,981.50
2023-03-11T02:54:49.387Z,981.49
2023-03-11T02:55:49.355Z,981.45
2023-03-11T02:56:49.356Z,981.56
2023-03-11T02:57:49.341Z,981.53
2023-03-11T02:58:49.335Z,981.57
2023-03-11T02:59:49.341Z,981.60
2023-03-11T03:00:49.393Z,981.58
2023-03-11T03:01:49.326Z,981.56
2023-03-11T03:02:49.326Z,981.54
2023-03-11T03:03:49.331Z,981.57
2023-03-11T03:04:49.303Z,981.59
2023-03-11T03:05:49.301Z,981.47
2023-03-11T03:06:49.281Z,981.54
2023-03-11T03:07:49.267Z,981.57
2023-03-11T03:08:49.280Z,981.59
2023-03-11T03:09:49.269Z,981.57
2023-03-11T03:10:49.271Z,981.72
2023-03-11T03:11:49.253Z,981.65
2023-03-11T03:12:49.260Z,981.70
2023-03-11T03:13:49.258Z,981.67
2023-03-11T03:14:49.234Z,981.71
2023-03-11T03:15:49.233Z,981.76
2023-03-11T03:16:49.379Z,981.80
2023-03-11T03:17:49.213Z,981.77
2023-03-11T03:18:49.217Z,981.81
2023-03-11T03:19:49.229Z,981.72
2023-03-11T03:20:49.203Z,981.70
2023-03-11T03:21:49.207Z,981.76
2023-03-11T03:22:49.188Z,981.77
2023-03-11T03:23:49.184Z,981.76
2023-03-11T03:24:49.182Z,981.79
2023-03-11T03:25:49.158Z,981.81
2023-03-11T03:26:49.163Z,981.82
2023-03-11T03:27:49.164Z,981.85
2023-03-11T03:28:49.141Z,981.87
2023-03-11T03:29:49.168Z,981.93
2023-03-11T03:30:49.134Z,981.96
2023-03-11T03:31:49.147Z,981.94
2023-03-11T03:32:49.135Z,981.91
2023-03-11T03:33:49.111Z,981.93
2023-03-11T03:34:49.109Z,981.96
2023-03-11T03:35:50.159Z,981.94
2023-03-11T03:36:49.103Z,982.00
2023-03-11T03:37:49.095Z,981.95
2023-03-11T03:38:49.098Z,981.96
2023-03-11T03:39:49.078Z,982.01
2023-03-11T03:40:49.077Z,981.94
2023-03-11T03:41:49.104Z,982.01
2023-03-11T03:42:49.046Z,982.03
2023-03-11T03:43:49.038Z,982.04
2023-03-11T03:44:49.038Z,982.06
2023-03-11T03:45:49.086Z,982.14
2023-03-11T03:46:49.022Z,982.11
2023-03-11T03:47:49.012Z,982.05
2023-03-11T03:48:49.068Z,982.15
2023-03-11T03:49:48.996Z,982.15
2023-03-11T03:50:48.998Z,982.14
2023-03-11T03:51:48.993Z,982.10
2023-03-11T03:52:48.986Z,981.95
2023-03-11T03:53:48.977Z,982.09
2023-03-11T03:54:48.979Z,982.13
2023-03-11T03:55:48.963Z,982.23
2023-03-11T03:56:48.954Z,982.15
2023-03-11T03:57:48.983Z,982.15
2023-03-11T03:58:48.950Z,982.17
2023-03-11T03:59:48.931Z,982.15
2023-03-11T04:00:48.941Z,982.22
2023-03-11T04:01:49.075Z,982.28
2023-03-11T04:02:48.911Z,982.32
2023-03-11T04:03:48.963Z,982.34
2023-03-11T04:04:48.900Z,982.35
2023-03-11T04:05:48.892Z,982.39
2023-03-11T04:06:48.920Z,982.32
2023-03-11T04:07:48.903Z,982.40
2023-03-11T04:08:48.875Z,982.38
2023-03-11T04:09:48.870Z,982.42
2023-03-11T04:10:48.869Z,982.39
2023-03-11T04:11:48.880Z,982.32
2023-03-11T04:12:48.853Z,982.38
2023-03-11T04:13:48.832Z,982.39
2023-03-11T04:14:48.842Z,982.42
2023-03-11T04:15:48.845Z,982.39
2023-03-11T04:16:48.927Z,982.40
2023-03-11T04:17:48.860Z,982.45
2023-03-11T04:18:48.818Z,982.44
2023-03-11T04:19:48.809Z,982.47
2023-03-11T04:20:48.803Z,982.47
2023-03-11T04:21:48.791Z,982.49
2023-03-11T04:22:48.802Z,982.54
2023-03-11T04:23:48.802Z,982.56
2023-03-11T04:24:48.770Z,982.52
2023-03-11T04:25:48.779Z,982.45
2023-03-11T04:26:48.754Z,982.52
2023-03-11T04:27:48.786Z,982.51
2023-03-11T04:28:48.745Z,982.54
2023-03-11T04:29:48.747Z,982.57
2023-03-11T04:30:48.762Z,982.57
2023-03-11T04:31:48.739Z,982.61
2023-03-11T04:32:48.792Z,982.61
2023-03-11T04:33:48.732Z,982.54
2023-03-11T04:34:48.713Z,982.61
2023-03-11T04:35:48.726Z,982.60
2023-03-11T04:36:48.685Z,982.60
2023-03-11T04:37:48.677Z,982.65
2023-03-11T04:38:48.697Z,982.63
2023-03-11T04:39:48.689Z,982.68
2023-03-11T04:40:48.672Z,982.68
2023-03-11T04:41:48.651Z,982.67
2023-03-11T04:42:48.662Z,982.68
2023-03-11T04:43:48.639Z,982.79
2023-03-11T04:44:48.654Z,982.71
2023-03-11T04:45:48.670Z,982.74
2023-03-11T04:46:48.618Z,982.72
2023-03-11T04:47:48.618Z,982.78
2023-03-11T04:48:48.599Z,982.83
2023-03-11T04:49:48.599Z,982.82
2023-03-11T04:50:48.621Z,982.80
2023-03-11T04:51:48.582Z,982.90
2023-03-11T04:52:48.578Z,982.80
2023-03-11T04:53:48.576Z,982.83
2023-03-11T04:54:48.565Z,982.93
2023-03-11T04:55:48.566Z,982.92
2023-03-11T04:56:48.549Z,982.92
2023-03-11T04:57:48.548Z,982.93
2023-03-11T04:58:48.553Z,982.97
2023-03-11T04:59:48.521Z,982.95
2023-03-11T05:00:48.521Z,982.94
2023-03-11T05:01:48.529Z,982.96
2023-03-11T05:02:48.506Z,983.01
2023-03-11T05:03:48.534Z,983.02
2023-03-11T05:04:48.554Z,982.97
2023-03-11T05:05:48.490Z,982.93
2023-03-11T05:06:48.486Z,982.92
2023-03-11T05:07:48.482Z,982.94
2023-03-11T05:08:48.515Z,982.98
2023-03-11T05:09:48.462Z,982.98
2023-03-11T05:10:48.464Z,983.01
2023-03-11T05:11:48.450Z,982.99
2023-03-11T05:12:48.451Z,982.97
2023-03-11T05:13:48.434Z,982.97
2023-03-11T05:14:48.467Z,983.00
2023-03-11T05:15:48.472Z,983.03
2023-03-11T05:16:48.409Z,983.08
2023-03-11T05:17:48.426Z,983.16
2023-03-11T05:18:48.410Z,983.13
2023-03-11T05:19:48.426Z,983.12
2023-03-11T05:20:48.446Z,983.11
2023-03-11T05:21:48.395Z,983.18
2023-03-11T05:22:48.393Z,983.24
2023-03-11T05:23:48.383Z,983.21
2023-03-11T05:24:48.386Z,983.24
2023-03-11T05:25:48.386Z,983.19
2023-03-11T05:26:48.673Z,983.24
2023-03-11T05:27:49.355Z,983.27
2023-03-11T05:28:48.342Z,983.32
2023-03-11T05:29:48.362Z,983.26
2023-03-11T05:30:48.365Z,983.29
2023-03-11T05:31:48.373Z,983.26
2023-03-11T05:32:48.364Z,983.33
2023-03-11T05:33:48.310Z,983.29
2023-03-11T05:34:48.300Z,983.33
2023-03-11T05:35:48.366Z,983.36
2023-03-11T05:36:48.324Z,983.38
2023-03-11T05:37:48.286Z,983.38
2023-03-11T05:38:48.281Z,983.39
2023-03-11T05:39:48.278Z,983.38
2023-03-11T05:40:48.270Z,983.42
2023-03-11T05:41:48.280Z,983.46
2023-03-11T05:42:48.260Z,983.42
2023-03-11T05:43:48.268Z,983.48
2023-03-11T05:44:48.269Z,983.50
2023-03-11T05:45:48.250Z,983.57
2023-03-11T05:46:48.267Z,983.58
2023-03-11T05:47:48.277Z,983.52
2023-03-11T05:48:48.244Z,983.65
2023-03-11T05:49:48.205Z,983.63
2023-03-11T05:50:48.237Z,983.57
2023-03-11T05:51:48.200Z,983.64
2023-03-11T05:52:48.185Z,983.56
2023-03-11T05:53:48.189Z,983.61
2023-03-11T05:54:48.175Z,983.62
2023-03-11T05:55:48.189Z,983.65
2023-03-11T05:56:48.173Z,983.62
2023-03-11T05:57:48.149Z,983.64
2023-03-11T05:58:48.145Z,983.63
2023-03-11T05:59:48.153Z,983.68
2023-03-11T06:00:48.139Z,983.61
2023-03-11T06:01:48.144Z,983.62
2023-03-11T06:02:48.135Z,983.62
2023-03-11T06:03:48.257Z,983.66
2023-03-11T06:04:48.329Z,983.68
2023-03-11T06:05:48.099Z,983.75
2023-03-11T06:06:48.130Z,983.69
2023-03-11T06:07:48.165Z,983.74
2023-03-11T06:08:48.085Z,983.85
2023-03-11T06:09:48.074Z,983.74
2023-03-11T06:10:49.071Z,983.83
2023-03-11T06:11:49.073Z,983.87
2023-03-11T06:12:48.074Z,983.90
2023-03-11T06:13:49.043Z,983.88
2023-03-11T06:14:48.038Z,983.92
2023-03-11T06:15:48.027Z,983.97
2023-03-11T06:16:48.029Z,983.91
2023-03-11T06:17:48.044Z,983.92
2023-03-11T06:18:48.035Z,983.96
2023-03-11T06:19:48.008Z,983.98
2023-03-11T06:20:48.006Z,983.99
2023-03-11T06:21:47.990Z,983.99
2023-03-11T06:22:47.978Z,984.08
2023-03-11T06:23:48.003Z,984.02
2023-03-11T06:24:47.978Z,984.01
2023-03-11T06:25:47.967Z,984.05
2023-03-11T06:26:47.995Z,984.06
2023-03-11T06:27:47.960Z,984.05
2023-03-11T06:28:48.833Z,984.07
2023-03-11T06:29:48.781Z,984.10
2023-03-11T06:30:48.935Z,984.13
2023-03-11T06:31:47.944Z,984.14
2023-03-11T06:32:48.047Z,984.16
2023-03-11T06:33:47.921Z,984.20
2023-03-11T06:34:47.907Z,984.20
2023-03-11T06:35:47.912Z,984.17
2023-03-11T06:36:47.885Z,984.21
2023-03-11T06:37:47.922Z,984.22
2023-03-11T06:38:47.886Z,984.21
2023-03-11T06:39:47.891Z,984.24
2023-03-11T06:40:47.866Z,984.20
2023-03-11T06:41:47.875Z,984.28
2023-03-11T06:42:47.865Z,984.35
2023-03-11T06:43:47.844Z,984.31
2023-03-11T06:44:47.858Z,984.28
2023-03-11T06:45:47.875Z,984.31
2023-03-11T06:46:47.842Z,984.33
2023-03-11T06:47:47.815Z,984.32
2023-03-11T06:48:47.813Z,984.34
2023-03-11T06:49:47.814Z,984.35
2023-03-11T06:50:48.519Z,984.29
2023-03-11T06:51:48.806Z,984.38
2023-03-11T06:52:47.794Z,984.42
2023-03-11T06:53:47.777Z,984.43
2023-03-11T06:54:47.778Z,984.42
2023-03-11T06:55:47.770Z,984.47
2023-03-11T06:56:47.799Z,984.45
2023-03-11T06:57:47.757Z,984.50
2023-03-11T06:58:47.754Z,984.56
2023-03-11T06:59:47.747Z,984.56
2023-03-11T07:00:47.754Z,984.53
2023-03-11T07:01:47.771Z,984.60
2023-03-11T07:02:47.725Z,984.60
2023-03-11T07:03:47.715Z,984.59
2023-03-11T07:04:47.705Z,984.60
2023-03-11T07:05:47.678Z,984.61
2023-03-11T07:06:47.706Z,984.63
2023-03-11T07:07:47.697Z,984.67
2023-03-11T07:08:47.683Z,984.62
2023-03-11T07:09:47.672Z,984.67
2023-03-11T07:10:47.672Z,984.73
2023-03-11T07:11:47.667Z,984.71
2023-03-11T07:12:47.670Z,984.65
2023-03-11T07:13:47.673Z,984.67
2023-03-11T07:14:47.635Z,984.65
2023-03-11T07:15:47.632Z,984.67
2023-03-11T07:16:47.644Z,984.67
2023-03-11T07:17:47.631Z,984.73
2023-03-11T07:18:47.620Z,984.72
2023-03-11T07:19:47.616Z,984.69
2023-03-11T07:20:47.606Z,984.70
2023-03-11T07:21:47.588Z,984.73
2023-03-11T07:22:47.601Z,984.69
2023-03-11T07:23:47.604Z,984.72
2023-03-11T07:24:47.558Z,984.73
2023-03-11T07:25:47.562Z,984.72
2023-03-11T07:26:47.555Z,984.78
2023-03-11T07:27:47.550Z,984.78
2023-03-11T07:28:47.555Z,984.69
2023-03-11T07:29:47.528Z,984.72
2023-03-11T07:30:47.535Z,984.75
2023-03-11T07:31:47.566Z,984.79
2023-03-11T07:32:47.561Z,984.83
2023-03-11T07:33:47.543Z,984.82
2023-03-11T07:34:47.533Z,984.84
2023-03-11T07:35:47.533Z,984.82
2023-03-11T07:36:47.484Z,984.90
2023-03-11T07:37:47.488Z,984.79
2023-03-11T07:38:47.514Z,984.76
2023-03-11T07:39:47.468Z,984.81
2023-03-11T07:40:47.483Z,984.81
2023-03-11T07:41:47.469Z,984.87
2023-03-11T07:42:47.450Z,984.79
2023-03-11T07:43:47.461Z,984.74
2023-03-11T07:44:47.434Z,984.70
2023-03-11T07:45:47.461Z,984.70
2023-03-11T07:46:47.416Z,984.68
2023-03-11T07:47:47.426Z,984.69
2023-03-11T07:48:47.423Z,984.67
2023-03-11T07:49:47.405Z,984.56
2023-03-11T07:50:47.434Z,984.62
2023-03-11T07:51:47.382Z,984.69
2023-03-11T07:52:47.387Z,984.70
2023-03-11T07:53:47.381Z,984.70
2023-03-11T07:54:47.365Z,984.81
2023-03-11T07:55:47.371Z,984.76
2023-03-11T07:56:47.386Z,984.78
2023-03-11T07:57:47.343Z,984.77
2023-03-11T07:58:47.329Z,984.88
2023-03-11T07:59:47.324Z,984.92
2023-03-11T08:00:47.316Z,984.90
2023-03-11T08:01:47.536Z,984.86
2023-03-11T08:02:47.336Z,984.97
2023-03-11T08:03:47.366Z,984.98
2023-03-11T08:04:47.294Z,984.98
2023-03-11T08:05:47.327Z,985.05
2023-03-11T08:06:47.280Z,985.05
2023-03-11T08:07:47.289Z,985.02
2023-03-11T08:08:47.269Z,985.03
2023-03-11T08:09:47.267Z,985.11
2023-03-11T08:10:47.257Z,985.10
2023-03-11T08:11:49.594Z,985.16
2023-03-11T08:12:47.247Z,985.22
2023-03-11T08:13:47.242Z,985.25
2023-03-11T08:14:47.227Z,985.25
2023-03-11T08:15:47.260Z,985.34
2023-03-11T08:16:47.214Z,985.35
2023-03-11T08:17:47.227Z,985.31
2023-03-11T08:18:47.209Z,985.36
2023-03-11T08:19:47.227Z,985.40
2023-03-11T08:20:47.184Z,985.34
2023-03-11T08:21:47.182Z,985.39
2023-03-11T08:22:57.556Z,985.38
2023-03-11T08:23:49.153Z,985.39
2023-03-11T08:24:48.180Z,985.43
2023-03-11T08:25:47.149Z,985.39
2023-03-11T08:26:47.148Z,985.40
2023-03-11T08:27:47.149Z,985.48
2023-03-11T08:28:47.129Z,985.46
2023-03-11T08:29:47.134Z,985.46
2023-03-11T08:30:47.142Z,985.51
2023-03-11T08:31:47.128Z,985.53
2023-03-11T08:32:47.183Z,985.49
2023-03-11T08:33:47.081Z,985.56
2023-03-11T08:34:47.159Z,985.53
2023-03-11T08:35:47.101Z,985.53
2023-03-11T08:36:47.086Z,985.52
2023-03-11T08:37:47.062Z,985.46
2023-03-11T08:38:47.136Z,985.50
2023-03-11T08:39:47.070Z,985.52
2023-03-11T08:40:47.057Z,985.57
2023-03-11T08:41:47.029Z,985.54
2023-03-11T08:42:47.027Z,985.57
2023-03-11T08:43:47.017Z,985.51
2023-03-11T08:44:47.033Z,985.57
2023-03-11T08:45:47.033Z,985.58
2023-03-11T08:46:47.091Z,985.53
2023-03-11T08:47:46.997Z,985.59
2023-03-11T08:48:47.114Z,985.58
2023-03-11T08:49:46.981Z,985.69
2023-03-11T08:50:53.880Z,985.61
2023-03-11T08:51:48.975Z,985.63
2023-03-11T08:52:46.960Z,985.63
2023-03-11T08:53:47.000Z,985.66
2023-03-11T08:54:47.839Z,985.70
2023-03-11T08:55:46.941Z,985.70
2023-03-11T08:56:46.929Z,985.69
2023-03-11T08:57:46.904Z,985.72
2023-03-11T08:58:46.911Z,985.72
2023-03-11T08:59:46.910Z,985.72
2023-03-11T09:00:46.898Z,985.78
2023-03-11T09:01:46.899Z,985.76
2023-03-11T09:02:46.894Z,985.77
2023-03-11T09:03:46.876Z,985.79
2023-03-11T09:04:46.869Z,985.82
2023-03-11T09:05:49.081Z,985.78
2023-03-11T09:06:46.847Z,985.81
2023-03-11T09:07:46.836Z,985.77
2023-03-11T09:08:46.852Z,985.81
2023-03-11T09:09:46.826Z,985.84
2023-03-11T09:10:46.820Z,985.80
2023-03-11T09:11:46.828Z,985.83
2023-03-11T09:12:46.820Z,985.84
2023-03-11T09:13:46.800Z,985.85
2023-03-11T09:14:46.803Z,985.86
2023-03-11T09:15:46.936Z,985.80
2023-03-11T09:16:46.786Z,985.87
2023-03-11T09:17:46.770Z,985.86
2023-03-11T09:18:46.770Z,985.91
2023-03-11T09:19:46.755Z,985.91
2023-03-11T09:20:46.786Z,985.86
2023-03-11T09:21:46.746Z,985.94
2023-03-11T09:22:46.747Z,985.94
2023-03-11T09:23:46.737Z,986.02
2023-03-11T09:24:46.729Z,986.08
2023-03-11T09:25:46.716Z,986.03
2023-03-11T09:26:46.734Z,986.03
2023-03-11T09:27:46.707Z,986.10
2023-03-11T09:28:46.713Z,986.11
2023-03-11T09:29:46.698Z,986.07
2023-03-11T09:30:46.915Z,986.16
2023-03-11T09:31:46.724Z,986.17
2023-03-11T09:32:46.718Z,986.10
2023-03-11T09:33:46.664Z,986.16
2023-03-11T09:34:46.669Z,986.16
2023-03-11T09:35:46.737Z,986.25
2023-03-11T09:36:46.656Z,986.23
2023-03-11T09:37:46.653Z,986.24
2023-03-11T09:38:46.632Z,986.25
2023-03-11T09:39:46.633Z,986.24
2023-03-11T09:40:47.175Z,986.23
2023-03-11T09:41:57.483Z,986.17
2023-03-11T09:42:48.608Z,986.17
2023-03-11T09:43:46.590Z,986.18
2023-03-11T09:44:46.587Z,986.22
2023-03-11T09:45:46.587Z,986.39
2023-03-11T09:46:46.642Z,986.29
2023-03-11T09:47:46.581Z,986.42
2023-03-11T09:48:46.551Z,986.47
2023-03-11T09:49:46.558Z,986.43
2023-03-11T09:50:46.551Z,986.45
2023-03-11T09:51:46.546Z,986.45
2023-03-11T09:52:46.538Z,986.42
2023-03-11T09:53:46.581Z,986.47
2023-03-11T09:54:46.522Z,986.43
2023-03-11T09:55:46.516Z,986.42
2023-03-11T09:56:46.508Z,986.35
2023-03-11T09:57:46.501Z,986.44
2023-03-11T09:58:46.494Z,986.42
2023-03-11T09:59:46.496Z,986.42
2023-03-11T10:00:46.476Z,986.43
2023-03-11T10:01:46.530Z,986.46
2023-03-11T10:02:46.565Z,986.37
2023-03-11T10:03:46.457Z,986.44
2023-03-11T10:04:46.450Z,986.51
2023-03-11T10:05:46.441Z,986.45
2023-03-11T10:06:46.436Z,986.47
2023-03-11T10:07:46.444Z,986.50
2023-03-11T10:08:46.484Z,986.43
2023-03-11T10:09:46.459Z,986.50
2023-03-11T10:10:46.413Z,986.49
2023-03-11T10:11:46.400Z,986.45
2023-03-11T10:12:46.406Z,986.48
2023-03-11T10:13:46.402Z,986.42
2023-03-11T10:14:46.457Z,986.39
2023-03-11T10:15:46.376Z,986.44
2023-03-11T10:16:46.438Z,986.43
2023-03-11T10:17:46.362Z,986.47
2023-03-11T10:18:46.364Z,986.50
2023-03-11T10:19:46.367Z,986.45
2023-03-11T10:20:46.328Z,986.43
2023-03-11T10:21:46.330Z,986.47
2023-03-11T10:22:46.320Z,986.46
2023-03-11T10:23:46.305Z,986.41
2023-03-11T10:24:46.314Z,986.45
2023-03-11T10:25:46.310Z,986.47
2023-03-11T10:26:46.293Z,986.46
2023-03-11T10:27:46.283Z,986.52
2023-03-11T10:28:46.291Z,986.57
2023-03-11T10:29:46.271Z,986.54
2023-03-11T10:30:46.257Z,986.56
2023-03-11T10:31:46.311Z,986.61
2023-03-11T10:32:46.288Z,986.58
2023-03-11T10:33:47.867Z,986.61
2023-03-11T10:34:47.251Z,986.67
2023-03-11T10:35:46.326Z,986.65
2023-03-11T10:36:46.221Z,986.61
2023-03-11T10:37:49.813Z,986.61
2023-03-11T10:38:47.231Z,986.66
2023-03-11T10:39:46.203Z,986.58
2023-03-11T10:40:46.203Z,986.60
2023-03-11T10:41:46.188Z,986.62
2023-03-11T10:42:46.203Z,986.55
2023-03-11T10:43:46.199Z,986.55
2023-03-11T10:44:46.169Z,986.47
2023-03-11T10:45:46.225Z,986.46
2023-03-11T10:46:46.159Z,986.52
2023-03-11T10:47:46.161Z,986.49
2023-03-11T10:48:46.131Z,986.60
2023-03-11T10:49:46.125Z,986.41
2023-03-11T10:50:46.128Z,986.49
2023-03-11T10:51:46.115Z,986.50
2023-03-11T10:52:46.109Z,986.45
2023-03-11T10:53:46.115Z,986.44
2023-03-11T10:54:46.172Z,986.51
2023-03-11T10:55:46.089Z,986.51
2023-03-11T10:56:46.090Z,986.47
2023-03-11T10:57:46.085Z,986.54
2023-03-11T10:58:46.076Z,986.42
2023-03-11T10:59:46.067Z,986.38
2023-03-11T11:00:46.078Z,986.57
2023-03-11T11:01:46.059Z,986.39
2023-03-11T11:02:46.049Z,986.52
2023-03-11T11:03:46.040Z,986.44
2023-03-11T11:04:46.030Z,986.61
2023-03-11T11:05:46.036Z,986.63
2023-03-11T11:06:46.028Z,986.53
2023-03-11T11:07:46.004Z,986.55
2023-03-11T11:08:46.010Z,986.55
2023-03-11T11:09:46.004Z,986.79
2023-03-11T11:10:46.031Z,986.69
2023-03-11T11:11:45.986Z,986.63
2023-03-11T11:12:45.980Z,986.65
2023-03-11T11:13:45.979Z,986.65
2023-03-11T11:14:45.984Z,986.57
2023-03-11T11:15:45.956Z,986.60
2023-03-11T11:16:46.030Z,986.50
2023-03-11T11:17:45.950Z,986.49
2023-03-11T11:18:48.814Z,986.35
2023-03-11T11:19:45.937Z,986.19
2023-03-11T11:20:45.928Z,986.41
2023-03-11T11:21:45.931Z,986.26
2023-03-11T11:22:45.934Z,986.41
2023-03-11T11:23:45.908Z,986.28
2023-03-11T11:24:45.910Z,986.02
2023-03-11T11:25:45.916Z,986.15
2023-03-11T11:26:45.900Z,986.29
2023-03-11T11:27:45.913Z,986.27
2023-03-11T11:28:45.881Z,986.21
2023-03-11T11:29:45.873Z,986.19
2023-03-11T11:30:45.900Z,986.24
2023-03-11T11:31:45.856Z,985.98
2023-03-11T11:32:45.984Z,985.99
2023-03-11T11:33:45.852Z,985.97
2023-03-11T11:34:45.861Z,986.12
2023-03-11T11:35:45.871Z,986.30
2023-03-11T11:36:45.811Z,986.37
2023-03-11T11:37:46.028Z,986.33
2023-03-11T11:38:45.821Z,986.39
2023-03-11T11:39:45.795Z,986.18
2023-03-11T11:40:45.788Z,986.32
2023-03-11T11:41:45.771Z,985.99
2023-03-11T11:42:45.781Z,986.04
2023-03-11T11:43:45.773Z,986.18
2023-03-11T11:44:45.775Z,986.08
2023-03-11T11:45:45.803Z,986.07
2023-03-11T11:46:45.782Z,986.03
2023-03-11T11:47:45.748Z,986.04
2023-03-11T11:48:45.738Z,986.07
2023-03-11T11:49:45.735Z,985.99
2023-03-11T11:50:45.717Z,986.07
2023-03-11T11:51:45.713Z,986.06
2023-03-11T11:52:45.710Z,985.99
2023-03-11T11:53:45.680Z,986.01
2023-03-11T11:54:45.757Z,985.96
2023-03-11T11:55:45.684Z,985.97
2023-03-11T11:56:45.688Z,985.99
2023-03-11T11:57:45.673Z,986.04
2023-03-11T11:58:45.657Z,986.04
2023-03-11T11:59:45.660Z,986.09
2023-03-11T12:00:45.673Z,986.03
2023-03-11T12:01:45.635Z,986.07
2023-03-11T12:02:45.648Z,986.09
2023-03-11T12:03:45.728Z,986.13
2023-03-11T12:04:45.652Z,986.12
2023-03-11T12:05:45.668Z,986.31
2023-03-11T12:06:45.599Z,986.28
2023-03-11T12:07:45.590Z,986.28
2023-03-11T12:08:45.618Z,986.24
2023-03-11T12:09:45.601Z,986.25
2023-03-11T12:10:45.627Z,986.24
2023-03-11T12:11:45.566Z,986.08
2023-03-11T12:12:45.579Z,986.01
2023-03-11T12:13:45.577Z,986.03
2023-03-11T12:14:45.565Z,986.01
2023-03-11T12:15:45.577Z,985.98
2023-03-11T12:16:45.543Z,986.04
2023-03-11T12:17:45.535Z,986.00
2023-03-11T12:18:45.535Z,986.00
2023-03-11T12:19:45.518Z,986.02
2023-03-11T12:20:45.573Z,985.99
2023-03-11T12:21:45.515Z,985.97
2023-03-11T12:22:45.502Z,985.97
2023-03-11T12:23:45.471Z,985.97
2023-03-11T12:24:45.484Z,985.96
2023-03-11T12:25:45.493Z,986.01
2023-03-11T12:26:45.465Z,986.00
2023-03-11T12:27:45.463Z,986.09
2023-03-11T12:28:45.471Z,986.22